Time;durP1;ratioP1;P1;durP2;ratioP2;P2;SDS_P1;SDS_P2;PMS_P1;PMS_P2;Temp;Humidity;BMP_temperature;BMP_pressure;BME280_temperature;BME280_humidity;BME280_pressure;Samples;Min_cycle;Max_cycle;Signal;HPM_P1;HPM_P2
2021/10/30 00:02:02;;;;;;;1999.90;999.90;;;;;;;4.83;55.26;100674.63;5015472;27;97383;-71
2021/10/30 00:04:30;;;;;;;1999.90;999.90;;;;;;;4.80;55.28;100670.16;5018870;27;99342;-72
2021/10/30 00:06:59;;;;;;;1999.90;999.90;;;;;;;4.80;55.38;100671.88;5019202;27;97890;-71
2021/10/30 00:09:27;;;;;;;1999.90;999.90;;;;;;;4.79;55.23;100676.25;5016450;27;97271;-71
2021/10/30 00:11:56;;;;;;;1999.90;999.90;;;;;;;4.76;55.22;100662.94;5018830;27;97257;-73
2021/10/30 00:14:24;;;;;;;1999.90;999.90;;;;;;;4.74;55.30;100668.97;5017845;27;98019;-72
2021/10/30 00:16:52;;;;;;;1999.90;999.90;;;;;;;4.74;55.38;100669.88;5018611;27;98617;-72
2021/10/30 00:19:20;;;;;;;1999.90;999.90;;;;;;;4.73;55.33;100667.19;5019974;27;97295;-72
2021/10/30 00:21:48;;;;;;;1999.90;999.90;;;;;;;4.72;55.50;100662.72;5020014;27;96891;-72
2021/10/30 00:24:16;;;;;;;1999.90;999.90;;;;;;;4.71;55.28;100671.50;5018041;27;97785;-72
2021/10/30 00:26:44;;;;;;;1999.90;999.90;;;;;;;4.69;55.50;100660.88;5016499;27;97688;-73
2021/10/30 00:29:12;;;;;;;1999.90;999.90;;;;;;;4.68;55.43;100669.59;5035040;27;97715;-73
2021/10/30 00:31:40;;;;;;;1999.90;999.90;;;;;;;4.67;55.33;100662.56;5016679;27;97929;-72
2021/10/30 00:34:08;;;;;;;1999.90;999.90;;;;;;;4.66;55.32;100667.75;5017591;27;98868;-72
2021/10/30 00:36:36;;;;;;;1999.90;999.90;;;;;;;4.61;55.34;100666.66;5018396;27;98134;-73
2021/10/30 00:39:04;;;;;;;1999.90;999.90;;;;;;;4.56;55.44;100673.44;5020003;27;97104;-72
2021/10/30 00:41:31;;;;;;;1999.90;999.90;;;;;;;4.50;55.53;100665.31;5017204;27;97510;-71
2021/10/30 00:44:07;;;;;;;1999.90;999.90;;;;;;;4.48;55.44;100664.34;5016101;27;100793;-72
2021/10/30 00:46:37;;;;;;;1999.90;999.90;;;;;;;4.47;55.44;100668.69;5018187;27;97780;-73
2021/10/30 00:49:04;;;;;;;1999.90;999.90;;;;;;;4.45;55.54;100657.19;5015585;27;97043;-72
2021/10/30 00:51:35;;;;;;;1999.90;999.90;;;;;;;4.41;55.45;100657.00;5018322;27;98617;-73
2021/10/30 00:54:04;;;;;;;1999.90;999.90;;;;;;;4.41;55.32;100657.88;5018760;27;99254;-71
2021/10/30 00:56:32;;;;;;;1999.90;999.90;;;;;;;4.38;55.60;100660.38;5035017;27;99111;-71
2021/10/30 00:59:02;;;;;;;1999.90;999.90;;;;;;;4.37;55.51;100662.97;5017734;27;98792;-72
2021/10/30 01:01:30;;;;;;;1999.90;999.90;;;;;;;4.36;55.63;100666.41;5017480;27;97211;-71
2021/10/30 01:03:59;;;;;;;1999.90;999.90;;;;;;;4.36;55.47;100655.88;5018763;27;99363;-72
2021/10/30 01:06:27;;;;;;;1999.90;999.90;;;;;;;4.36;55.72;100663.78;5016714;27;99331;-71
2021/10/30 01:08:55;;;;;;;1999.90;999.90;;;;;;;4.33;55.66;100663.66;5017204;27;96789;-70
2021/10/30 01:11:23;;;;;;;1999.90;999.90;;;;;;;4.31;55.56;100660.06;5017478;27;96871;-72
2021/10/30 01:13:51;;;;;;;1999.90;999.90;;;;;;;4.30;55.49;100659.13;5018684;27;97554;-72
2021/10/30 01:16:19;;;;;;;1999.90;999.90;;;;;;;4.28;55.49;100663.44;5000037;27;99614;-71
2021/10/30 01:18:47;;;;;;;1999.90;999.90;;;;;;;4.24;55.67;100659.78;5018639;27;97654;-71
2021/10/30 01:21:24;;;;;;;1999.90;999.90;;;;;;;4.20;55.74;100663.13;5018382;27;98027;-72
2021/10/30 01:23:53;;;;;;;1999.90;999.90;;;;;;;4.21;55.93;100667.53;5018380;27;98160;-72
2021/10/30 01:26:21;;;;;;;1999.90;999.90;;;;;;;4.20;55.76;100663.13;5019388;27;96935;-71
2021/10/30 01:28:49;;;;;;;1999.90;999.90;;;;;;;4.20;55.68;100664.84;5021281;27;97470;-74
2021/10/30 01:31:18;;;;;;;1999.90;999.90;;;;;;;4.17;55.71;100657.69;5021938;27;96926;-71
2021/10/30 01:33:46;;;;;;;1999.90;999.90;;;;;;;4.15;55.83;100638.28;5021322;27;97482;-71
2021/10/30 01:36:19;;;;;;;1999.90;999.90;;;;;;;4.15;55.83;100642.69;5003882;28;98956;-70
2021/10/30 01:38:47;;;;;;;1999.90;999.90;;;;;;;4.13;55.89;100642.59;5023082;27;97810;-73
2021/10/30 01:41:15;;;;;;;1999.90;999.90;;;;;;;4.16;55.66;100649.75;5021381;27;98043;-71
2021/10/30 01:43:43;;;;;;;1999.90;999.90;;;;;;;4.15;55.70;100655.84;5018878;27;100475;-72
2021/10/30 01:46:12;;;;;;;1999.90;999.90;;;;;;;4.14;55.54;100657.56;5020900;27;97615;-74
2021/10/30 01:48:40;;;;;;;1999.90;999.90;;;;;;;4.16;55.70;100660.28;5023605;27;97276;-72
2021/10/30 01:51:08;;;;;;;1999.90;999.90;;;;;;;4.15;55.58;100656.72;5021164;27;97331;-73
2021/10/30 01:53:37;;;;;;;1999.90;999.90;;;;;;;4.17;55.27;100652.44;5020864;27;100818;-71
2021/10/30 01:56:06;;;;;;;1999.90;999.90;;;;;;;4.17;55.55;100657.69;5021519;27;97696;-72
2021/10/30 01:58:34;;;;;;;1999.90;999.90;;;;;;;4.15;55.64;100664.63;5021277;27;97630;-72
2021/10/30 02:01:02;;;;;;;1999.90;999.90;;;;;;;4.16;55.56;100665.53;5017622;27;97454;-72
2021/10/30 02:03:33;;;;;;;1999.90;999.90;;;;;;;4.15;55.64;100664.63;4999667;28;102399;-73
2021/10/30 02:06:02;;;;;;;1999.90;999.90;;;;;;;4.13;55.58;100663.66;5016973;27;98651;-72
2021/10/30 02:08:30;;;;;;;1999.90;999.90;;;;;;;4.13;55.60;100660.16;5016131;27;97759;-69
2021/10/30 02:10:59;;;;;;;1999.90;999.90;;;;;;;4.11;55.77;100659.19;5031816;27;98246;-71
2021/10/30 02:13:29;;;;;;;1999.90;999.90;;;;;;;4.07;55.68;100651.97;5001069;27;99681;-72
2021/10/30 02:15:57;;;;;;;1999.90;999.90;;;;;;;4.06;55.84;100655.44;5015310;27;98314;-73
2021/10/30 02:18:24;;;;;;;1999.90;999.90;;;;;;;4.06;55.78;100653.69;5016205;27;97164;-71
2021/10/30 02:20:52;;;;;;;1999.90;999.90;;;;;;;4.04;55.74;100644.81;5016326;27;99335;-73
2021/10/30 02:23:20;;;;;;;1999.90;999.90;;;;;;;4.03;55.59;100645.66;4977639;28;97925;-71
2021/10/30 02:25:47;;;;;;;1999.90;999.90;;;;;;;4.02;55.82;100654.38;4998340;28;100644;-72
2021/10/30 02:28:17;;;;;;;1999.90;999.90;;;;;;;4.02;55.78;100651.75;5015874;27;96878;-72
2021/10/30 02:30:44;;;;;;;1999.90;999.90;;;;;;;4.00;55.73;100648.16;5014332;27;96926;-71
2021/10/30 02:33:12;;;;;;;1999.90;999.90;;;;;;;4.01;55.74;100641.16;5014843;27;100621;-72
2021/10/30 02:35:40;;;;;;;1999.90;999.90;;;;;;;3.98;55.82;100641.94;5014002;27;97892;-72
2021/10/30 02:38:07;;;;;;;1999.90;999.90;;;;;;;3.96;55.78;100646.22;5017916;27;97639;-71
2021/10/30 02:40:35;;;;;;;1999.90;999.90;;;;;;;3.95;55.91;100640.91;5019849;27;97153;-72
2021/10/30 02:43:04;;;;;;;1999.90;999.90;;;;;;;3.94;55.84;100642.63;5019913;27;100055;-71
2021/10/30 02:45:33;;;;;;;1999.90;999.90;;;;;;;3.95;55.93;100651.41;5017204;27;97706;-73
2021/10/30 02:48:01;;;;;;;1999.90;999.90;;;;;;;3.90;55.83;100645.03;5021132;27;97327;-72
2021/10/30 02:50:29;;;;;;;1999.90;999.90;;;;;;;3.88;55.92;100657.22;5017286;27;97986;-71
2021/10/30 02:52:57;;;;;;;1999.90;999.90;;;;;;;3.86;56.08;100653.63;5019534;27;97701;-71
2021/10/30 02:55:25;;;;;;;1999.90;999.90;;;;;;;3.86;55.87;100653.63;5019908;27;98894;-72
2021/10/30 02:57:53;;;;;;;1999.90;999.90;;;;;;;3.86;55.85;100651.88;5003801;27;97892;-70
2021/10/30 03:00:20;;;;;;;1999.90;999.90;;;;;;;3.85;56.02;100651.81;5021737;27;97345;-70
2021/10/30 03:02:49;;;;;;;1999.90;999.90;;;;;;;3.84;55.86;100655.28;5020113;27;99345;-71
2021/10/30 03:05:17;;;;;;;1999.90;999.90;;;;;;;3.79;55.96;100655.06;5018623;27;98310;-71
2021/10/30 03:07:45;;;;;;;1999.90;999.90;;;;;;;3.78;55.68;100653.28;5019055;27;97023;-71
2021/10/30 03:10:16;;;;;;;1999.90;999.90;;;;;;;3.77;55.78;100659.34;5018006;27;97548;-71
2021/10/30 03:12:45;;;;;;;1999.90;999.90;;;;;;;3.76;55.93;100660.19;5018391;27;99585;-70
2021/10/30 03:15:13;;;;;;;1999.90;999.90;;;;;;;3.74;55.95;100659.22;5020600;27;97712;-72
2021/10/30 03:17:41;;;;;;;1999.90;999.90;;;;;;;3.73;55.93;100656.53;5021277;27;97671;-72
2021/10/30 03:20:11;;;;;;;1999.90;999.90;;;;;;;3.71;55.92;100660.81;5021129;27;97550;-71
2021/10/30 03:22:41;;;;;;;1999.90;999.90;;;;;;;3.69;55.72;100657.22;5021324;27;97875;-72
2021/10/30 03:25:09;;;;;;;1999.90;999.90;;;;;;;3.67;55.81;100654.50;5020152;27;98006;-70
2021/10/30 03:27:37;;;;;;;1999.90;999.90;;;;;;;3.66;55.79;100651.81;5022250;27;96898;-73
2021/10/30 03:30:06;;;;;;;1999.90;999.90;;;;;;;3.63;55.80;100649.91;5021686;27;96945;-73
2021/10/30 03:32:34;;;;;;;1999.90;999.90;;;;;;;3.59;55.86;100640.06;5002690;27;99411;-73
2021/10/30 03:35:03;;;;;;;1999.90;999.90;;;;;;;3.57;55.95;100644.34;5020421;27;97540;-72
2021/10/30 03:37:34;;;;;;;1999.90;999.90;;;;;;;3.57;56.01;100641.72;5020794;27;96975;-72
2021/10/30 03:40:05;;;;;;;1999.90;999.90;;;;;;;3.56;55.82;100639.00;5020918;27;96862;-71
2021/10/30 03:42:32;;;;;;;1999.90;999.90;;;;;;;3.53;55.83;100636.25;5020145;27;97917;-72
2021/10/30 03:45:01;;;;;;;1999.90;999.90;;;;;;;3.53;56.09;100636.25;5021391;27;98091;-70
2021/10/30 03:47:29;;;;;;;1999.90;999.90;;;;;;;3.50;56.25;100630.81;5013699;27;98494;-73
2021/10/30 03:50:01;;;;;;;1999.90;999.90;;;;;;;3.50;55.85;100625.56;5019829;27;97556;-71
2021/10/30 03:52:29;;;;;;;1999.90;999.90;;;;;;;3.48;56.34;100630.75;5018041;27;99262;-70
2021/10/30 03:54:57;;;;;;;1999.90;999.90;;;;;;;3.47;56.26;100628.06;5021041;27;98760;-70
2021/10/30 03:57:25;;;;;;;1999.90;999.90;;;;;;;3.44;56.36;100636.69;5015422;27;96967;-72
2021/10/30 03:59:53;;;;;;;1999.90;999.90;;;;;;;3.42;55.93;100638.38;5020969;27;97127;-72
2021/10/30 04:02:21;;;;;;;1999.90;999.90;;;;;;;3.40;56.06;100640.03;5013701;27;100652;-72
2021/10/30 04:04:49;;;;;;;1999.90;999.90;;;;;;;3.40;56.47;100640.03;5018304;27;99515;-71
2021/10/30 04:07:18;;;;;;;1999.90;999.90;;;;;;;3.39;56.28;100634.69;5018425;27;97266;-72
2021/10/30 04:09:46;;;;;;;1999.90;999.90;;;;;;;3.38;56.02;100635.53;5019731;27;97272;-70
2021/10/30 04:12:15;;;;;;;1999.90;999.90;;;;;;;3.37;56.28;100633.72;5018491;27;99632;-70
2021/10/30 04:14:42;;;;;;;1999.90;999.90;;;;;;;3.37;55.76;100628.47;5021069;27;98814;-71
2021/10/30 04:17:10;;;;;;;1999.90;999.90;;;;;;;3.36;56.15;100632.81;5018748;27;97838;-71
2021/10/30 04:19:38;;;;;;;1999.90;999.90;;;;;;;3.37;56.15;100629.34;5021767;27;97723;-72
2021/10/30 04:22:06;;;;;;;1999.90;999.90;;;;;;;3.34;56.26;100626.59;5018570;27;100827;-73
2021/10/30 04:24:34;;;;;;;1999.90;999.90;;;;;;;3.33;55.88;100631.78;5017949;27;98339;-72
2021/10/30 04:27:02;;;;;;;1999.90;999.90;;;;;;;3.31;56.35;100629.09;5020870;27;97712;-69
2021/10/30 04:29:31;;;;;;;1999.90;999.90;;;;;;;3.29;55.77;100627.19;5020220;27;97123;-73
2021/10/30 04:32:01;;;;;;;1999.90;999.90;;;;;;;3.27;56.20;100624.50;5016687;27;99952;-72
2021/10/30 04:34:40;;;;;;;1999.90;999.90;;;;;;;3.23;56.32;100620.81;5018236;27;100435;-72
2021/10/30 04:37:15;;;;;;;1999.90;999.90;;;;;;;3.22;56.25;100626.00;5019926;27;97302;-71
2021/10/30 04:39:44;;;;;;;1999.90;999.90;;;;;;;3.22;55.82;100628.66;5018906;27;97777;-71
2021/10/30 04:42:12;;;;;;;1999.90;999.90;;;;;;;3.20;56.38;100625.91;5017639;27;97741;-71
2021/10/30 04:44:42;;;;;;;1999.90;999.90;;;;;;;3.17;55.90;100622.25;5019268;27;97513;-72
2021/10/30 04:47:10;;;;;;;1999.90;999.90;;;;;;;3.15;55.94;100622.19;5007335;27;97560;-73
2021/10/30 04:49:38;;;;;;;1999.90;999.90;;;;;;;3.13;56.27;100613.31;5018414;27;97262;-72
2021/10/30 04:52:07;;;;;;;1999.90;999.90;;;;;;;3.10;56.06;100604.38;5017873;27;100503;-72
2021/10/30 04:54:35;;;;;;;1999.90;999.90;;;;;;;3.07;56.58;100601.63;5020342;27;99051;-72
2021/10/30 04:57:03;;;;;;;1999.90;999.90;;;;;;;3.03;56.07;100602.28;5020152;27;97423;-70
2021/10/30 04:59:32;;;;;;;1999.90;999.90;;;;;;;2.99;56.64;100611.75;5018886;27;97181;-72
2021/10/30 05:02:01;;;;;;;1999.90;999.90;;;;;;;2.96;56.65;100606.34;5024525;27;98117;-73
2021/10/30 05:04:29;;;;;;;1999.90;999.90;;;;;;;2.92;56.32;100599.16;5022845;27;100904;-71
2021/10/30 05:06:57;;;;;;;1999.90;999.90;;;;;;;2.90;56.70;100594.63;5020969;27;97889;-71
2021/10/30 05:09:25;;;;;;;1999.90;999.90;;;;;;;2.89;56.71;100592.84;5003400;27;98118;-70
2021/10/30 05:11:53;;;;;;;1999.90;999.90;;;;;;;2.88;56.71;100593.66;5021256;27;98118;-70
2021/10/30 05:14:20;;;;;;;1999.90;999.90;;;;;;;2.84;56.82;100589.97;5020803;27;99624;-71
2021/10/30 05:16:48;;;;;;;1999.90;999.90;;;;;;;2.83;56.80;100587.28;5020741;27;97297;-69
2021/10/30 05:19:17;;;;;;;1999.90;999.90;;;;;;;2.83;56.54;100589.91;5021346;27;97298;-73
2021/10/30 05:21:45;;;;;;;1999.90;999.90;;;;;;;2.84;56.10;100589.06;5018260;27;100176;-70
2021/10/30 05:24:13;;;;;;;1999.90;999.90;;;;;;;2.84;56.74;100586.44;5022238;27;97872;-71
2021/10/30 05:26:41;;;;;;;1999.90;999.90;;;;;;;2.84;56.72;100579.47;5019876;27;97942;-72
2021/10/30 05:29:08;;;;;;;1999.90;999.90;;;;;;;2.82;56.45;100569.72;5021353;27;97283;-72
2021/10/30 05:31:36;;;;;;;1999.90;999.90;;;;;;;2.83;56.51;100567.16;5021817;27;99576;-71
2021/10/30 05:34:05;;;;;;;1999.90;999.90;;;;;;;2.82;56.11;100561.84;5021414;27;97732;-71
2021/10/30 05:36:57;;;;;;;1999.90;999.90;;;;;;;2.80;56.79;100560.88;5020748;27;97486;-71
2021/10/30 05:39:39;;;;;;;1999.90;999.90;;;;;;;2.78;56.63;100554.63;5020448;27;97130;-71
2021/10/30 05:42:09;;;;;;;1999.90;999.90;;;;;;;2.79;56.33;100559.03;5019604;27;99628;-72
2021/10/30 05:44:38;;;;;;;1999.90;999.90;;;;;;;2.77;56.23;100552.81;5020974;27;99216;-71
2021/10/30 05:47:06;;;;;;;1999.90;999.90;;;;;;;2.76;56.18;100556.28;5021685;27;97304;-71
2021/10/30 05:49:36;;;;;;;1999.90;999.90;;;;;;;2.76;56.85;100566.78;5021652;27;97933;-72
2021/10/30 05:52:06;;;;;;;1999.90;999.90;;;;;;;2.75;56.34;100570.22;5018132;27;99355;-71
2021/10/30 05:54:33;;;;;;;1999.90;999.90;;;;;;;2.75;56.40;100570.22;5022336;27;97538;-71
2021/10/30 05:57:01;;;;;;;1999.90;999.90;;;;;;;2.74;56.28;100568.44;5019820;27;97158;-72
2021/10/30 05:59:30;;;;;;;1999.90;999.90;;;;;;;2.72;56.89;100559.59;5021560;27;97464;-73
2021/10/30 06:01:58;;;;;;;1999.90;999.90;;;;;;;2.72;56.55;100562.22;5019859;27;97775;-72
2021/10/30 06:04:25;;;;;;;1999.90;999.90;;;;;;;2.69;56.17;100567.31;5018160;27;97721;-70
2021/10/30 06:06:53;;;;;;;1999.90;999.90;;;;;;;2.66;56.23;100564.53;5017712;27;98034;-71
2021/10/30 06:09:22;;;;;;;1999.90;999.90;;;;;;;2.63;56.96;100561.75;5019458;27;96806;-71
2021/10/30 06:11:50;;;;;;;1999.90;999.90;;;;;;;2.61;56.64;100563.41;5020721;27;99145;-72
2021/10/30 06:14:17;;;;;;;1999.90;999.90;;;;;;;2.59;56.78;100565.06;5021507;27;97909;-71
2021/10/30 06:16:45;;;;;;;1999.90;999.90;;;;;;;2.57;57.07;100564.06;5021071;27;97318;-71
2021/10/30 06:19:12;;;;;;;1999.90;999.90;;;;;;;2.56;56.79;100562.28;5019837;27;97138;-70
2021/10/30 06:21:40;;;;;;;1999.90;999.90;;;;;;;2.56;56.32;100562.28;5018642;27;99797;-71
2021/10/30 06:24:08;;;;;;;1999.90;999.90;;;;;;;2.55;56.43;100563.09;5019510;27;100290;-73
2021/10/30 06:26:38;;;;;;;1999.90;999.90;;;;;;;2.54;56.64;100556.97;5020180;27;97782;-72
2021/10/30 06:29:05;;;;;;;1999.90;999.90;;;;;;;2.56;56.48;100562.28;5018002;27;97394;-70
2021/10/30 06:31:33;;;;;;;1999.90;999.90;;;;;;;2.51;56.99;100558.53;5018756;27;97771;-71
2021/10/30 06:34:01;;;;;;;1999.90;999.90;;;;;;;2.51;56.56;100554.16;5016914;27;99290;-71
2021/10/30 06:36:28;;;;;;;1999.90;999.90;;;;;;;2.52;56.50;100549.81;5019459;27;97597;-72
2021/10/30 06:38:57;;;;;;;1999.90;999.90;;;;;;;2.52;57.04;100540.22;5016739;27;97257;-72
2021/10/30 06:41:45;;;;;;;1999.90;999.90;;;;;;;2.54;56.73;100543.84;5016257;27;98313;-72
2021/10/30 06:44:16;;;;;;;1999.90;999.90;;;;;;;2.53;56.92;100531.50;5014617;27;100780;-72
2021/10/30 06:46:44;;;;;;;1999.90;999.90;;;;;;;2.55;56.75;100534.19;5015576;27;98133;-70
2021/10/30 06:49:14;;;;;;;1999.90;999.90;;;;;;;2.57;56.74;100538.72;5017995;27;97185;-72
2021/10/30 06:51:42;;;;;;;1999.90;999.90;;;;;;;2.58;56.26;100537.91;5016416;27;98784;-71
2021/10/30 06:54:10;;;;;;;1999.90;999.90;;;;;;;2.63;56.21;100540.75;5027044;27;99077;-71
2021/10/30 06:56:39;;;;;;;1999.90;999.90;;;;;;;2.66;56.30;100540.88;4989945;28;97738;-71
2021/10/30 06:59:09;;;;;;;1999.90;999.90;;;;;;;2.67;56.93;100542.69;5013776;27;99284;-73
2021/10/30 07:01:40;;;;;;;1999.90;999.90;;;;;;;2.68;56.84;100541.84;5013830;27;99316;-73
2021/10/30 07:04:08;;;;;;;1999.90;999.90;;;;;;;2.72;57.06;100549.06;5014404;27;98669;-74
2021/10/30 07:06:36;;;;;;;1999.90;999.90;;;;;;;2.74;56.63;100542.16;5012463;27;98519;-72
2021/10/30 07:09:04;;;;;;;1999.90;999.90;;;;;;;2.75;55.93;100546.59;5003443;27;97816;-70
2021/10/30 07:11:32;;;;;;;1999.90;999.90;;;;;;;2.75;56.54;100549.22;5013709;27;97406;-71
2021/10/30 07:14:00;;;;;;;1999.90;999.90;;;;;;;2.77;56.42;100552.81;5010360;27;98203;-71
2021/10/30 07:16:29;;;;;;;1999.90;999.90;;;;;;;2.80;56.82;100540.72;5011738;27;98327;-71
2021/10/30 07:18:57;;;;;;;1999.90;999.90;;;;;;;2.85;56.38;100551.47;5018843;27;97176;-72
2021/10/30 07:21:25;;;;;;;1999.90;999.90;;;;;;;2.86;56.15;100555.88;5016542;27;99635;-70
2021/10/30 07:23:54;;;;;;;1999.90;999.90;;;;;;;2.89;56.55;100553.44;5016322;27;98899;-73
2021/10/30 07:26:22;;;;;;;1999.90;999.90;;;;;;;2.92;56.12;100550.94;5011099;27;98614;-71
2021/10/30 07:28:50;;;;;;;1999.90;999.90;;;;;;;2.95;56.28;100543.19;5024803;27;96801;-72
2021/10/30 07:31:18;;;;;;;1999.90;999.90;;;;;;;2.97;56.64;100558.22;5021900;27;98561;-68
2021/10/30 07:33:47;;;;;;;1999.90;999.90;;;;;;;2.99;56.45;100564.44;5021933;27;99882;-70
2021/10/30 07:36:15;;;;;;;1999.90;999.90;;;;;;;3.01;56.20;100544.41;5023203;27;97311;-73
2021/10/30 07:38:42;;;;;;;1999.90;999.90;;;;;;;3.05;56.26;100553.31;5020192;27;97449;-73
2021/10/30 07:41:10;;;;;;;1999.90;999.90;;;;;;;3.08;56.61;100545.56;5022292;27;97709;-73
2021/10/30 07:43:38;;;;;;;1999.90;999.90;;;;;;;3.13;56.49;100544.97;5020289;27;97926;-70
2021/10/30 07:46:06;;;;;;;1999.90;999.90;;;;;;;3.18;55.98;100532.03;5013096;27;98979;-71
2021/10/30 07:48:34;;;;;;;1999.90;999.90;;;;;;;3.23;55.92;100534.06;5016610;27;97651;-70
2021/10/30 07:51:03;;;;;;;1999.90;999.90;;;;;;;3.29;55.88;100535.16;5010785;27;99268;-72
2021/10/30 07:53:31;;;;;;;1999.90;999.90;;;;;;;3.32;56.07;100524.78;5013112;27;99272;-70
2021/10/30 07:55:59;;;;;;;1999.90;999.90;;;;;;;3.37;55.79;100524.16;5013107;27;98162;-72
2021/10/30 07:58:27;;;;;;;1999.90;999.90;;;;;;;3.42;55.92;100519.13;5014362;27;97891;-71
2021/10/30 08:00:55;;;;;;;1999.90;999.90;;;;;;;3.47;55.74;100504.44;4996563;28;100262;-71
2021/10/30 08:03:23;;;;;;;1999.90;999.90;;;;;;;3.49;55.86;100511.59;5013501;27;99046;-71
2021/10/30 08:05:51;;;;;;;1999.90;999.90;;;;;;;3.52;55.64;100509.06;5015296;27;97472;-73
2021/10/30 08:08:20;;;;;;;1999.90;999.90;;;;;;;3.54;55.84;100507.41;5017395;27;97832;-73
2021/10/30 08:10:48;;;;;;;1999.90;999.90;;;;;;;3.59;55.92;100502.34;5015545;27;97263;-71
2021/10/30 08:13:16;;;;;;;1999.90;999.90;;;;;;;3.64;55.63;100499.09;5015401;27;98551;-74
2021/10/30 08:15:47;;;;;;;1999.90;999.90;;;;;;;3.69;55.53;100501.97;5017558;27;97850;-72
2021/10/30 08:18:14;;;;;;;1999.90;999.90;;;;;;;3.75;55.83;100500.50;5018311;27;97896;-73
2021/10/30 08:20:42;;;;;;;1999.90;999.90;;;;;;;3.80;55.63;100490.19;5015163;27;102750;-73
2021/10/30 08:23:10;;;;;;;1999.90;999.90;;;;;;;3.86;55.62;100483.44;5015446;27;98498;-70
2021/10/30 08:25:39;;;;;;;1999.90;999.90;;;;;;;3.94;55.49;100478.50;5014349;27;97381;-71
2021/10/30 08:28:07;;;;;;;1999.90;999.90;;;;;;;4.00;55.29;100482.31;4996397;28;99258;-73
2021/10/30 08:30:35;;;;;;;1999.90;999.90;;;;;;;4.07;55.38;100476.47;5010478;27;99381;-75
2021/10/30 08:33:03;;;;;;;1999.90;999.90;;;;;;;4.13;55.24;100476.72;5019064;27;98579;-72
2021/10/30 08:35:30;;;;;;;1999.90;999.90;;;;;;;4.18;55.17;100467.28;5019443;27;97078;-71
2021/10/30 08:37:58;;;;;;;1999.90;999.90;;;;;;;4.26;55.12;100471.97;5018704;27;98321;-72
2021/10/30 08:40:26;;;;;;;1999.90;999.90;;;;;;;4.31;55.17;100468.69;5016003;27;99158;-73
2021/10/30 08:43:10;;;;;;;1999.90;999.90;;;;;;;4.40;55.31;100463.81;5011014;27;100470;-71
2021/10/30 08:45:37;;;;;;;1999.90;999.90;;;;;;;4.45;55.01;100456.06;5015771;27;97715;-71
2021/10/30 08:48:06;;;;;;;1999.90;999.90;;;;;;;4.52;54.87;100456.38;5017526;27;97274;-72
2021/10/30 08:50:35;;;;;;;1999.90;999.90;;;;;;;4.59;54.78;100447.88;5016067;27;99573;-71
2021/10/30 08:53:03;;;;;;;1999.90;999.90;;;;;;;4.66;54.60;100446.41;5020012;27;98144;-68
2021/10/30 08:55:31;;;;;;;1999.90;999.90;;;;;;;4.73;54.53;100448.44;5021560;27;97055;-71
2021/10/30 08:58:06;;;;;;;1999.90;999.90;;;;;;;4.77;54.50;100434.53;5019190;27;97194;-71
2021/10/30 09:00:38;;;;;;;1999.90;999.90;;;;;;;4.84;54.49;100439.19;5019832;27;97700;-70
2021/10/30 09:03:06;;;;;;;1999.90;999.90;;;;;;;4.91;54.43;100441.22;5017447;27;99160;-71
2021/10/30 09:05:34;;;;;;;1999.90;999.90;;;;;;;4.97;54.67;100431.81;5014957;27;97207;-71
2021/10/30 09:08:04;;;;;;;1999.90;999.90;;;;;;;5.03;54.14;100434.72;5013502;27;97180;-71
2021/10/30 09:10:35;;;;;;;1999.90;999.90;;;;;;;5.09;54.38;100429.69;5012721;27;99542;-70
2021/10/30 09:13:05;;;;;;;1999.90;999.90;;;;;;;5.18;53.94;100431.75;5015647;27;98441;-70
2021/10/30 09:15:36;;;;;;;1999.90;999.90;;;;;;;5.24;53.86;100432.00;4999491;28;97649;-69
2021/10/30 09:18:20;;;;;;;1999.90;999.90;;;;;;;5.29;53.78;100434.78;4999266;28;97854;-69
2021/10/30 09:20:53;;;;;;;1999.90;999.90;;;;;;;5.35;53.74;100430.63;5012330;27;100674;-71
2021/10/30 09:23:21;;;;;;;1999.90;999.90;;;;;;;5.39;53.63;100416.72;5017746;27;97625;-72
2021/10/30 09:25:55;;;;;;;1999.90;999.90;;;;;;;5.43;53.77;100423.88;5000554;27;96877;-71
2021/10/30 09:28:24;;;;;;;1999.90;999.90;;;;;;;5.49;53.55;100423.19;4998285;27;98227;-72
2021/10/30 09:30:59;;;;;;;1999.90;999.90;;;;;;;5.52;53.32;100428.59;4999395;27;100528;-71
2021/10/30 09:33:29;;;;;;;1999.90;999.90;;;;;;;5.57;53.44;100413.81;5014698;27;98913;-71
2021/10/30 09:35:59;;;;;;;1999.90;999.90;;;;;;;5.62;53.69;100422.78;5017735;27;98876;-70
2021/10/30 09:38:29;;;;;;;1999.90;999.90;;;;;;;5.67;53.42;100419.47;5016811;27;98210;-71
2021/10/30 09:40:57;;;;;;;1999.90;999.90;;;;;;;5.74;53.36;100416.19;5018413;27;98900;-70
2021/10/30 09:43:25;;;;;;;1999.90;999.90;;;;;;;5.78;53.14;100412.81;5015319;27;100643;-71
2021/10/30 09:45:55;;;;;;;1999.90;999.90;;;;;;;5.83;53.28;100411.22;5017625;27;97974;-70
2021/10/30 09:48:27;;;;;;;1999.90;999.90;;;;;;;5.90;52.84;100410.59;5015943;27;98069;-69
2021/10/30 09:50:58;;;;;;;1999.90;999.90;;;;;;;5.95;52.93;100400.19;4999305;28;99365;-68
2021/10/30 09:53:32;;;;;;;1999.90;999.90;;;;;;;6.01;52.81;100410.97;5018048;27;98138;-68
2021/10/30 09:56:03;;;;;;;1999.90;999.90;;;;;;;6.06;52.99;100406.75;5016667;27;97636;-68
2021/10/30 09:58:33;;;;;;;1999.90;999.90;;;;;;;6.10;52.67;100398.94;5018297;27;96811;-69
2021/10/30 10:01:11;;;;;;;1999.90;999.90;;;;;;;6.15;52.53;100405.31;5017825;27;98724;-69
2021/10/30 10:03:41;;;;;;;1999.90;999.90;;;;;;;6.20;52.96;100398.41;5017436;27;97620;-70
2021/10/30 10:06:10;;;;;;;1999.90;999.90;;;;;;;6.28;52.58;100403.09;5017634;27;97882;-70
2021/10/30 10:08:39;;;;;;;1999.90;999.90;;;;;;;6.35;52.79;100391.84;5015847;27;97272;-68
2021/10/30 10:11:08;;;;;;;1999.90;999.90;;;;;;;6.40;52.57;100393.78;5014726;27;97981;-70
2021/10/30 10:13:39;;;;;;;1999.90;999.90;;;;;;;6.48;52.25;100388.75;5016963;27;97711;-68
2021/10/30 10:16:11;;;;;;;1999.90;999.90;;;;;;;6.53;52.05;100381.84;5018650;27;99850;-69
2021/10/30 10:18:40;;;;;;;1999.90;999.90;;;;;;;6.60;52.41;100381.19;4999488;27;97303;-68
2021/10/30 10:21:10;;;;;;;1999.90;999.90;;;;;;;6.65;51.97;100372.53;5013402;27;100364;-68
2021/10/30 10:23:41;;;;;;;1999.90;999.90;;;;;;;6.72;52.23;100368.38;5013320;27;100635;-74
2021/10/30 10:26:08;;;;;;;1999.90;999.90;;;;;;;6.79;52.22;100365.94;5014440;27;97237;-72
2021/10/30 10:28:37;;;;;;;1999.90;999.90;;;;;;;6.86;51.60;100351.16;5015405;27;97237;-68
2021/10/30 10:31:10;;;;;;;1999.90;999.90;;;;;;;6.97;51.68;100349.72;5014125;27;97635;-68
2021/10/30 10:33:39;;;;;;;1999.90;999.90;;;;;;;7.07;51.40;100342.06;5015650;27;100621;-70
2021/10/30 10:36:27;;;;;;;1999.90;999.90;;;;;;;7.12;51.31;100339.56;5013610;27;97811;-68
2021/10/30 10:39:19;;;;;;;1999.90;999.90;;;;;;;7.15;51.23;100335.25;4994150;27;97355;-69
2021/10/30 10:41:55;;;;;;;1999.90;999.90;;;;;;;7.22;51.06;100325.72;5030407;27;99374;-68
2021/10/30 10:45:00;;;;;;;1999.90;999.90;;;;;;;7.25;50.93;100309.94;5011882;27;98170;-68
2021/10/30 10:47:54;;;;;;;1999.90;999.90;;;;;;;7.33;50.72;100318.09;5013947;27;98167;-70
2021/10/30 10:50:46;;;;;;;1999.90;999.90;;;;;;;7.36;50.65;100308.47;5010198;27;98305;-69
2021/10/30 10:53:23;;;;;;;1999.90;999.90;;;;;;;7.42;51.09;100297.19;5005264;27;99352;-69
2021/10/30 10:56:23;;;;;;;1999.90;999.90;;;;;;;7.47;50.84;100296.47;5013925;27;99469;-70
2021/10/30 10:59:12;;;;;;;1999.90;999.90;;;;;;;7.52;50.76;100291.25;5016920;27;97963;-69
2021/10/30 11:01:42;;;;;;;1999.90;999.90;;;;;;;7.57;51.30;100282.59;5016159;27;97156;-68
2021/10/30 11:04:14;;;;;;;1999.90;999.90;;;;;;;7.62;50.87;100270.34;5016989;27;98114;-68
2021/10/30 11:06:45;;;;;;;1999.90;999.90;;;;;;;7.65;50.96;100265.16;5012150;27;99800;-69